createdAt,value
2022-08-20T00:02:14.381Z,4.80
2022-08-20T00:04:42.879Z,4.70
2022-08-20T00:07:12.658Z,5.22
2022-08-20T00:09:41.692Z,5.50
2022-08-20T00:12:10.970Z,5.70
2022-08-20T00:14:39.915Z,5.35
2022-08-20T00:17:08.392Z,5.72
2022-08-20T00:19:36.827Z,5.78
2022-08-20T00:22:05.440Z,6.10
2022-08-20T00:24:35.308Z,5.50
2022-08-20T00:27:03.798Z,6.30
2022-08-20T00:29:32.281Z,6.88
2022-08-20T00:32:00.922Z,6.63
2022-08-20T00:34:29.423Z,7.25
2022-08-20T00:36:57.972Z,7.57
2022-08-20T00:39:26.464Z,7.38
2022-08-20T00:41:56.246Z,7.68
2022-08-20T00:44:24.837Z,8.70
2022-08-20T00:46:53.839Z,8.23
2022-08-20T00:49:24.947Z,8.63
2022-08-20T00:51:57.574Z,8.73
2022-08-20T00:54:28.370Z,9.80
2022-08-20T00:56:59.479Z,10.00
2022-08-20T00:59:29.842Z,10.82
2022-08-20T01:01:58.659Z,11.43
2022-08-20T01:04:27.211Z,12.00
2022-08-20T01:06:55.648Z,11.70
2022-08-20T01:09:33.303Z,11.48
2022-08-20T01:12:14.777Z,11.55
2022-08-20T01:14:46.284Z,12.07
2022-08-20T01:17:17.593Z,11.57
2022-08-20T01:19:47.421Z,13.10
2022-08-20T01:22:35.358Z,12.10
2022-08-20T01:25:08.069Z,13.48
2022-08-20T01:27:42.483Z,13.95
2022-08-20T01:30:11.712Z,13.50
2022-08-20T01:32:40.174Z,14.27
2022-08-20T01:35:10.287Z,15.18
2022-08-20T01:37:38.920Z,13.73
2022-08-20T01:40:09.809Z,15.35
2022-08-20T01:42:53.992Z,15.75
2022-08-20T01:45:30.377Z,15.90
2022-08-20T01:47:59.696Z,16.67
2022-08-20T01:50:30.767Z,17.10
2022-08-20T01:53:01.048Z,17.80
2022-08-20T01:55:29.702Z,19.60
2022-08-20T01:57:59.554Z,18.95
2022-08-20T02:00:28.005Z,19.30
2022-08-20T02:02:56.376Z,19.70
2022-08-20T02:05:25.227Z,20.30
2022-08-20T02:07:58.987Z,20.67
2022-08-20T02:10:27.451Z,21.85
2022-08-20T02:13:01.896Z,21.10
2022-08-20T02:15:34.980Z,22.42
2022-08-20T02:18:07.956Z,24.08
2022-08-20T02:20:37.323Z,23.65
2022-08-20T02:23:07.577Z,23.08
2022-08-20T02:25:37.436Z,24.55
2022-08-20T02:28:10.515Z,23.70
2022-08-20T02:30:40.373Z,25.52
2022-08-20T02:33:11.247Z,25.20
2022-08-20T02:35:40.007Z,24.65
2022-08-20T02:38:08.591Z,23.83
2022-08-20T02:40:37.656Z,23.65
2022-08-20T02:43:07.773Z,23.45
2022-08-20T02:45:43.555Z,21.80
2022-08-20T02:48:20.679Z,21.58
2022-08-20T02:50:50.796Z,23.30
2022-08-20T02:53:19.232Z,22.92
2022-08-20T02:55:47.667Z,21.25
2022-08-20T02:58:17.487Z,19.55
2022-08-20T03:00:45.952Z,20.73
2022-08-20T03:03:15.347Z,18.85
2022-08-20T03:05:44.951Z,18.38
2022-08-20T03:08:14.352Z,18.52
2022-08-20T03:10:43.763Z,18.73
2022-08-20T03:13:12.790Z,18.55
2022-08-20T03:15:43.272Z,18.35
2022-08-20T03:18:11.999Z,19.45
2022-08-20T03:20:40.901Z,18.42
2022-08-20T03:23:09.566Z,19.33
2022-08-20T03:25:38.426Z,19.02
2022-08-20T03:28:07.185Z,19.20
2022-08-20T03:30:35.760Z,18.75
2022-08-20T03:33:05.580Z,18.90
2022-08-20T03:35:35.457Z,18.55
2022-08-20T03:38:03.832Z,18.77
2022-08-20T03:40:36.089Z,18.30
2022-08-20T03:43:05.146Z,18.80
2022-08-20T03:45:33.693Z,21.13
2022-08-20T03:48:02.692Z,20.75
2022-08-20T03:50:33.328Z,20.15
2022-08-20T03:53:02.565Z,20.80
2022-08-20T03:55:32.207Z,20.70
2022-08-20T03:58:02.682Z,21.08
2022-08-20T04:00:32.228Z,22.27
2022-08-20T04:03:00.890Z,20.75
2022-08-20T04:05:30.019Z,20.83
2022-08-20T04:08:03.417Z,21.33
2022-08-20T04:10:32.224Z,20.60
2022-08-20T04:13:00.615Z,19.33
2022-08-20T04:15:31.439Z,19.45
2022-08-20T04:18:00.016Z,20.38
2022-08-20T04:20:28.582Z,20.30
2022-08-20T04:22:59.405Z,20.23
2022-08-20T04:25:31.497Z,21.52
2022-08-20T04:28:06.445Z,23.08
2022-08-20T04:30:34.968Z,22.55
2022-08-20T04:33:03.544Z,21.70
2022-08-20T04:35:32.722Z,22.15
2022-08-20T04:38:02.048Z,23.65
2022-08-20T04:40:49.591Z,23.27
2022-08-20T04:43:17.975Z,23.65
2022-08-20T04:45:47.201Z,24.23
2022-08-20T04:48:15.776Z,25.58
2022-08-20T04:50:45.177Z,25.35
2022-08-20T04:53:14.401Z,26.33
2022-08-20T04:55:44.719Z,25.52
2022-08-20T04:58:14.676Z,29.05
2022-08-20T05:00:43.137Z,26.85
2022-08-20T05:03:12.141Z,25.60
2022-08-20T05:05:40.559Z,26.35
2022-08-20T05:08:19.577Z,26.50
2022-08-20T05:10:50.220Z,26.48
2022-08-20T05:13:35.279Z,27.23
2022-08-20T05:16:05.033Z,27.70
2022-08-20T05:18:34.532Z,27.05
2022-08-20T05:21:05.950Z,28.65
2022-08-20T05:23:34.558Z,27.48
2022-08-20T05:26:07.530Z,28.73
2022-08-20T05:28:36.963Z,27.90
2022-08-20T05:31:22.593Z,28.48
2022-08-20T05:33:59.498Z,29.45
2022-08-20T05:36:28.026Z,28.50
2022-08-20T05:38:56.712Z,28.95
2022-08-20T05:41:29.729Z,27.48
2022-08-20T05:43:59.724Z,28.23
2022-08-20T05:46:28.108Z,28.70
2022-08-20T05:48:59.489Z,27.42
2022-08-20T05:51:28.519Z,27.25
2022-08-20T05:54:03.679Z,26.58
2022-08-20T05:56:33.982Z,26.33
2022-08-20T05:59:04.061Z,26.33
2022-08-20T06:01:32.638Z,25.98
2022-08-20T06:04:22.014Z,27.33
2022-08-20T06:06:51.188Z,25.75
2022-08-20T06:09:30.785Z,27.33
2022-08-20T06:12:02.188Z,26.13
2022-08-20T06:14:30.987Z,26.10
2022-08-20T06:17:04.729Z,27.83
2022-08-20T06:19:33.771Z,27.42
2022-08-20T06:22:02.572Z,27.27
2022-08-20T06:24:45.947Z,27.38
2022-08-20T06:27:16.966Z,26.70
2022-08-20T06:29:45.431Z,26.92
2022-08-20T06:32:14.128Z,27.45
2022-08-20T06:34:50.624Z,26.88
2022-08-20T06:37:20.564Z,25.10
2022-08-20T06:39:49.161Z,26.88
2022-08-20T06:42:21.759Z,25.65
2022-08-20T06:44:50.987Z,26.48
2022-08-20T06:47:19.677Z,24.63
2022-08-20T06:49:48.758Z,26.73
2022-08-20T06:52:18.234Z,26.75
2022-08-20T06:54:47.181Z,26.02
2022-08-20T06:57:15.695Z,24.55
2022-08-20T06:59:45.499Z,24.27
2022-08-20T07:02:29.150Z,23.40
2022-08-20T07:04:58.743Z,23.27
2022-08-20T07:07:27.295Z,21.10
2022-08-20T07:10:01.242Z,22.08
2022-08-20T07:12:29.675Z,20.45
2022-08-20T07:14:59.472Z,19.08
2022-08-20T07:17:27.891Z,17.85
2022-08-20T07:19:56.329Z,17.65
2022-08-20T07:22:25.210Z,18.17
2022-08-20T07:24:53.652Z,17.25
2022-08-20T07:27:23.091Z,15.13
2022-08-20T07:30:12.713Z,13.80
2022-08-20T07:32:46.295Z,14.27
2022-08-20T07:35:17.687Z,12.98
2022-08-20T07:37:48.388Z,12.00
2022-08-20T07:40:21.366Z,13.15
2022-08-20T07:42:53.984Z,12.40
2022-08-20T07:45:22.524Z,11.90
2022-08-20T07:47:53.667Z,11.55
2022-08-20T07:50:24.314Z,11.45
2022-08-20T07:52:53.177Z,11.30
2022-08-20T07:55:22.548Z,10.82
2022-08-20T07:57:51.890Z,9.70
2022-08-20T08:00:21.016Z,10.93
2022-08-20T08:02:49.491Z,10.70
2022-08-20T08:05:19.563Z,11.38
2022-08-20T08:07:48.777Z,11.50
2022-08-20T08:10:18.608Z,12.25
2022-08-20T08:12:48.783Z,13.35
2022-08-20T08:15:18.835Z,13.05
2022-08-20T08:17:48.628Z,12.98
2022-08-20T08:20:19.271Z,13.18
2022-08-20T08:22:49.066Z,12.73
2022-08-20T08:25:17.947Z,12.77
2022-08-20T08:27:49.078Z,12.23
2022-08-20T08:30:18.154Z,12.93
2022-08-20T08:33:04.168Z,12.75
2022-08-20T08:35:32.983Z,13.13
2022-08-20T08:38:02.788Z,13.40
2022-08-20T08:40:32.003Z,12.95
2022-08-20T08:43:01.898Z,12.48
2022-08-20T08:45:33.099Z,11.52
2022-08-20T08:48:01.978Z,11.65
2022-08-20T08:50:52.888Z,11.50
2022-08-20T08:53:24.090Z,11.88
2022-08-20T08:55:52.513Z,11.57
2022-08-20T08:58:20.898Z,10.85
2022-08-20T09:00:55.858Z,11.02
2022-08-20T09:03:28.088Z,11.50
2022-08-20T09:05:57.201Z,11.00
2022-08-20T09:08:28.443Z,12.35
2022-08-20T09:10:56.906Z,11.70
2022-08-20T09:13:25.712Z,11.75
2022-08-20T09:15:54.175Z,10.75
2022-08-20T09:18:22.582Z,10.18
2022-08-20T09:20:51.124Z,10.40
2022-08-20T09:23:19.886Z,12.27
2022-08-20T09:25:49.752Z,11.57
2022-08-20T09:28:18.367Z,11.52
2022-08-20T09:30:46.786Z,11.95
2022-08-20T09:33:15.366Z,12.48
2022-08-20T09:35:45.972Z,13.60
2022-08-20T09:38:14.489Z,12.02
2022-08-20T09:40:42.935Z,11.23
2022-08-20T09:43:12.685Z,10.95
2022-08-20T09:45:41.155Z,9.25
2022-08-20T09:48:10.289Z,9.60
2022-08-20T09:50:39.796Z,8.25
2022-08-20T09:53:08.181Z,7.55
2022-08-20T09:55:37.790Z,6.78
2022-08-20T09:58:09.799Z,8.65
2022-08-20T10:00:39.647Z,8.77
2022-08-20T10:03:08.024Z,9.00
2022-08-20T10:05:36.482Z,6.82
2022-08-20T10:08:06.711Z,7.63
2022-08-20T10:10:35.145Z,7.38
2022-08-20T10:13:03.635Z,6.93
2022-08-20T10:15:32.234Z,6.90
2022-08-20T10:18:05.575Z,7.25
2022-08-20T10:20:34.153Z,7.60
2022-08-20T10:23:02.896Z,6.70
2022-08-20T10:25:31.544Z,6.00
2022-08-20T10:28:00.139Z,6.82
2022-08-20T10:30:28.658Z,6.15
2022-08-20T10:32:57.065Z,6.68
2022-08-20T10:35:27.074Z,6.80
2022-08-20T10:37:55.586Z,5.70
2022-08-20T10:40:24.246Z,6.13
2022-08-20T10:42:54.709Z,8.10
2022-08-20T10:45:25.306Z,8.10
2022-08-20T10:47:53.793Z,9.15
2022-08-20T10:50:22.279Z,8.93
2022-08-20T10:52:52.021Z,9.35
2022-08-20T10:55:21.945Z,9.43
2022-08-20T10:57:50.387Z,10.20
2022-08-20T11:00:19.535Z,10.00
2022-08-20T11:02:47.991Z,11.80
2022-08-20T11:05:16.613Z,12.18
2022-08-20T11:07:53.695Z,11.48
2022-08-20T11:10:27.427Z,11.80
2022-08-20T11:12:56.202Z,11.10
2022-08-20T11:15:24.698Z,9.55
2022-08-20T11:17:53.130Z,8.07
2022-08-20T11:20:23.759Z,7.40
2022-08-20T11:22:52.163Z,7.70
2022-08-20T11:25:21.111Z,7.30
2022-08-20T11:27:51.361Z,6.38
2022-08-20T11:30:21.622Z,5.38
2022-08-20T11:32:50.043Z,3.75
2022-08-20T11:35:41.684Z,3.70
2022-08-20T11:38:07.968Z,4.10
2022-08-20T11:40:36.406Z,3.40
2022-08-20T11:43:15.120Z,3.85
2022-08-20T11:45:44.939Z,3.70
2022-08-20T11:48:13.332Z,3.70
2022-08-20T11:50:41.770Z,3.88
2022-08-20T11:53:10.253Z,4.00
2022-08-20T11:55:39.102Z,2.92
2022-08-20T11:58:08.850Z,3.00
2022-08-20T12:00:37.530Z,3.20
2022-08-20T12:03:08.912Z,3.38
2022-08-20T12:05:38.498Z,3.63
2022-08-20T12:08:08.435Z,3.92
2022-08-20T12:10:37.110Z,3.55
2022-08-20T12:13:05.512Z,2.90
2022-08-20T12:15:35.815Z,2.40
2022-08-20T12:18:07.631Z,2.70
2022-08-20T12:20:36.216Z,2.83
2022-08-20T12:23:04.668Z,2.85
2022-08-20T12:25:33.111Z,2.90
2022-08-20T12:28:01.492Z,3.00
2022-08-20T12:30:29.911Z,2.83
2022-08-20T12:32:59.775Z,3.10
2022-08-20T12:35:29.589Z,3.17
2022-08-20T12:37:59.923Z,3.15
2022-08-20T12:40:31.942Z,3.20
2022-08-20T12:43:01.332Z,3.40
2022-08-20T12:45:30.112Z,3.00
2022-08-20T12:48:03.843Z,2.95
2022-08-20T12:50:32.569Z,2.88
2022-08-20T12:53:01.106Z,2.40
2022-08-20T12:55:29.735Z,2.50
2022-08-20T12:57:59.540Z,2.30
2022-08-20T13:00:29.894Z,2.00
2022-08-20T13:02:59.713Z,2.10
2022-08-20T13:05:30.035Z,1.73
2022-08-20T13:07:58.594Z,1.60
2022-08-20T13:10:28.392Z,1.80
2022-08-20T13:12:57.035Z,1.73
2022-08-20T13:15:25.824Z,2.17
2022-08-20T13:17:54.880Z,2.25
2022-08-20T13:20:25.652Z,1.80
2022-08-20T13:23:00.816Z,1.85
2022-08-20T13:25:29.231Z,1.70
2022-08-20T13:27:58.929Z,1.90
2022-08-20T13:30:27.939Z,2.30
2022-08-20T13:32:56.430Z,1.90
2022-08-20T13:35:25.061Z,2.33
2022-08-20T13:37:53.457Z,2.10
2022-08-20T13:40:26.445Z,2.13
2022-08-20T13:42:54.995Z,1.50
2022-08-20T13:45:23.516Z,1.60
2022-08-20T13:47:53.876Z,1.70
2022-08-20T13:50:23.944Z,2.20
2022-08-20T13:52:52.511Z,1.92
2022-08-20T13:55:22.163Z,2.20
2022-08-20T13:57:52.317Z,1.83
2022-08-20T14:00:31.018Z,1.77
2022-08-20T14:03:00.414Z,2.03
2022-08-20T14:05:29.223Z,1.80
2022-08-20T14:07:57.645Z,1.98
2022-08-20T14:10:31.385Z,2.10
2022-08-20T14:13:01.311Z,2.03
2022-08-20T14:15:29.737Z,2.05
2022-08-20T14:17:59.224Z,2.10
2022-08-20T14:20:29.495Z,2.03
2022-08-20T14:23:01.360Z,2.30
2022-08-20T14:25:30.176Z,2.17
2022-08-20T14:27:59.007Z,1.90
2022-08-20T14:30:31.281Z,1.92
2022-08-20T14:32:59.692Z,2.50
2022-08-20T14:35:28.226Z,2.20
2022-08-20T14:37:56.650Z,2.00
2022-08-20T14:40:25.771Z,1.77
2022-08-20T14:42:54.582Z,1.80
2022-08-20T14:45:24.060Z,1.92
2022-08-20T14:47:54.509Z,1.80
2022-08-20T14:50:25.113Z,1.80
2022-08-20T14:52:53.615Z,1.80
2022-08-20T14:55:23.587Z,1.80
2022-08-20T14:57:51.962Z,2.00
2022-08-20T15:00:21.241Z,1.60
2022-08-20T15:02:49.683Z,1.90
2022-08-20T15:05:19.622Z,1.90
2022-08-20T15:07:49.092Z,1.63
2022-08-20T15:10:21.456Z,2.42
2022-08-20T15:12:49.872Z,2.00
2022-08-20T15:15:19.537Z,1.80
2022-08-20T15:17:49.218Z,2.50
2022-08-20T15:20:21.681Z,2.08
2022-08-20T15:22:51.132Z,2.20
2022-08-20T15:25:20.683Z,1.90
2022-08-20T15:27:49.156Z,1.85
2022-08-20T15:30:19.370Z,2.10
2022-08-20T15:32:52.685Z,1.98
2022-08-20T15:35:24.687Z,1.90
2022-08-20T15:37:54.762Z,1.80
2022-08-20T15:40:27.737Z,1.77
2022-08-20T15:42:56.922Z,1.98
2022-08-20T15:45:25.438Z,1.83
2022-08-20T15:47:55.973Z,1.90
2022-08-20T15:50:35.514Z,2.00
2022-08-20T15:53:06.748Z,2.08
2022-08-20T15:55:35.539Z,1.90
2022-08-20T15:58:09.646Z,2.20
2022-08-20T16:00:41.697Z,2.10
2022-08-20T16:03:24.974Z,1.80
2022-08-20T16:05:56.433Z,2.00
2022-08-20T16:08:35.793Z,1.80
2022-08-20T16:11:08.394Z,1.75
2022-08-20T16:13:40.398Z,1.83
2022-08-20T16:16:10.372Z,1.88
2022-08-20T16:18:42.487Z,1.70
2022-08-20T16:21:14.056Z,2.13
2022-08-20T16:23:43.835Z,1.75
2022-08-20T16:26:17.465Z,2.05
2022-08-20T16:28:50.852Z,1.90
2022-08-20T16:31:21.122Z,1.88
2022-08-20T16:33:56.521Z,2.00
2022-08-20T16:36:31.589Z,1.92
2022-08-20T16:39:00.900Z,1.80
2022-08-20T16:41:30.727Z,1.88
2022-08-20T16:44:02.062Z,1.90
2022-08-20T16:46:36.123Z,1.90
2022-08-20T16:49:11.332Z,2.17
2022-08-20T16:51:42.639Z,1.85
2022-08-20T16:54:11.238Z,1.70
2022-08-20T16:56:40.840Z,2.00
2022-08-20T16:59:10.099Z,1.70
2022-08-20T17:01:38.909Z,1.88
2022-08-20T17:04:08.092Z,2.25
2022-08-20T17:06:38.233Z,1.90
2022-08-20T17:09:11.063Z,1.95
2022-08-20T17:11:39.677Z,1.83
2022-08-20T17:14:10.454Z,2.10
2022-08-20T17:16:40.162Z,1.80
2022-08-20T17:19:10.296Z,2.00
2022-08-20T17:21:39.230Z,1.98
2022-08-20T17:24:16.687Z,2.20
2022-08-20T17:26:47.465Z,2.08
2022-08-20T17:29:17.492Z,2.10
2022-08-20T17:31:46.872Z,1.80
2022-08-20T17:34:16.022Z,2.08
2022-08-20T17:36:53.407Z,1.73
2022-08-20T17:39:23.948Z,1.95
2022-08-20T17:41:53.862Z,2.10
2022-08-20T17:44:23.433Z,1.90
2022-08-20T17:46:53.743Z,2.10
2022-08-20T17:49:34.799Z,1.98
2022-08-20T17:52:04.603Z,2.13
2022-08-20T17:54:36.230Z,1.95
2022-08-20T17:57:06.829Z,1.80
2022-08-20T18:00:00.818Z,1.77
2022-08-20T18:02:25.945Z,1.50
2022-08-20T18:04:55.664Z,1.75
2022-08-20T18:07:26.380Z,1.65
2022-08-20T18:09:59.571Z,1.85
2022-08-20T18:12:34.002Z,1.80
2022-08-20T18:15:06.041Z,1.73
2022-08-20T18:17:55.254Z,1.90
2022-08-20T18:20:37.430Z,2.10
2022-08-20T18:23:09.339Z,1.90
2022-08-20T18:25:41.000Z,1.83
2022-08-20T18:28:12.528Z,1.60
2022-08-20T18:30:48.989Z,1.98
2022-08-20T18:33:26.403Z,2.17
2022-08-20T18:36:04.751Z,1.70
2022-08-20T18:38:34.587Z,1.63
2022-08-20T18:41:15.020Z,1.67
2022-08-20T18:43:43.990Z,1.85
2022-08-20T18:46:14.364Z,1.73
2022-08-20T18:48:52.082Z,1.60
2022-08-20T18:51:22.248Z,1.60
2022-08-20T18:53:52.013Z,1.80
2022-08-20T18:56:31.613Z,1.60
2022-08-20T18:59:02.165Z,2.13
2022-08-20T19:01:31.890Z,1.60
2022-08-20T19:04:00.307Z,1.90
2022-08-20T19:06:35.373Z,1.67
2022-08-20T19:09:10.766Z,1.85
2022-08-20T19:11:47.678Z,1.52
2022-08-20T19:14:36.716Z,1.67
2022-08-20T19:17:08.268Z,1.80
2022-08-20T19:19:36.709Z,1.98
2022-08-20T19:22:05.850Z,1.70
2022-08-20T19:24:35.504Z,1.80
2022-08-20T19:27:07.226Z,1.77
2022-08-20T19:29:37.570Z,1.52
2022-08-20T19:32:07.220Z,1.85
2022-08-20T19:34:36.545Z,1.95
2022-08-20T19:37:27.528Z,2.03
2022-08-20T19:39:55.577Z,2.22
2022-08-20T19:42:26.696Z,1.90
2022-08-20T19:44:57.162Z,1.80
2022-08-20T19:47:31.419Z,2.22
2022-08-20T19:50:01.714Z,1.90
2022-08-20T19:52:35.330Z,2.08
2022-08-20T19:55:04.291Z,2.10
2022-08-20T19:57:34.220Z,2.17
2022-08-20T20:00:05.192Z,2.20
2022-08-20T20:02:35.049Z,2.10
2022-08-20T20:05:06.346Z,2.28
2022-08-20T20:07:38.670Z,1.90
2022-08-20T20:10:08.340Z,2.40
2022-08-20T20:12:38.544Z,2.15
2022-08-20T20:15:07.767Z,1.98
2022-08-20T20:17:37.338Z,2.38
2022-08-20T20:20:23.124Z,2.30
2022-08-20T20:22:53.586Z,2.03
2022-08-20T20:25:23.574Z,2.13
2022-08-20T20:27:54.985Z,2.53
2022-08-20T20:30:24.387Z,2.50
2022-08-20T20:32:53.202Z,2.42
2022-08-20T20:35:26.270Z,2.13
2022-08-20T20:37:59.411Z,2.20
2022-08-20T20:40:30.554Z,2.40
2022-08-20T20:43:05.266Z,2.40
2022-08-20T20:45:35.712Z,2.58
2022-08-20T20:48:11.674Z,2.47
2022-08-20T20:50:40.434Z,2.15
2022-08-20T20:53:08.895Z,2.58
2022-08-20T20:55:39.924Z,2.00
2022-08-20T20:58:09.701Z,2.30
2022-08-20T21:00:38.087Z,2.25
2022-08-20T21:03:06.497Z,2.38
2022-08-20T21:05:34.937Z,2.42
2022-08-20T21:08:04.252Z,2.30
2022-08-20T21:10:39.933Z,2.35
2022-08-20T21:13:10.157Z,2.70
2022-08-20T21:15:39.910Z,2.42
2022-08-20T21:18:09.224Z,2.20
2022-08-20T21:20:38.096Z,2.30
2022-08-20T21:23:06.546Z,2.60
2022-08-20T21:25:35.765Z,2.85
2022-08-20T21:28:04.323Z,2.58
2022-08-20T21:30:34.300Z,2.92
2022-08-20T21:33:02.915Z,2.70
2022-08-20T21:35:31.275Z,3.05
2022-08-20T21:37:59.684Z,3.00
2022-08-20T21:40:28.172Z,3.67
2022-08-20T21:42:57.495Z,3.10
2022-08-20T21:45:28.505Z,3.00
2022-08-20T21:47:58.799Z,2.83
2022-08-20T21:50:27.682Z,2.83
2022-08-20T21:52:59.713Z,3.03
2022-08-20T21:55:28.684Z,2.83
2022-08-20T21:57:57.273Z,2.80
2022-08-20T22:00:40.498Z,2.80
2022-08-20T22:03:10.302Z,2.60
2022-08-20T22:05:42.915Z,2.97
2022-08-20T22:08:11.810Z,3.00
2022-08-20T22:10:40.262Z,2.90
2022-08-20T22:13:08.707Z,3.23
2022-08-20T22:15:37.108Z,3.00
2022-08-20T22:18:05.835Z,3.57
2022-08-20T22:20:35.649Z,3.10
2022-08-20T22:23:04.733Z,3.57
2022-08-20T22:25:33.392Z,3.50
2022-08-20T22:28:01.916Z,3.40
2022-08-20T22:30:31.273Z,3.20
2022-08-20T22:33:02.391Z,3.23
2022-08-20T22:35:31.487Z,3.00
2022-08-20T22:38:01.348Z,2.80
2022-08-20T22:40:29.925Z,3.20
2022-08-20T22:42:58.599Z,3.10
2022-08-20T22:45:27.138Z,2.90
2022-08-20T22:47:55.567Z,3.10
2022-08-20T22:50:25.215Z,3.37
2022-08-20T22:52:54.199Z,3.30
2022-08-20T22:55:24.011Z,3.03
2022-08-20T22:57:52.469Z,3.47
2022-08-20T23:00:20.945Z,3.17
2022-08-20T23:02:51.387Z,2.90
2022-08-20T23:05:21.960Z,3.50
2022-08-20T23:07:53.991Z,2.70
2022-08-20T23:10:24.159Z,2.77
2022-08-20T23:12:52.619Z,3.10
2022-08-20T23:15:21.121Z,3.30
2022-08-20T23:17:49.568Z,2.90
2022-08-20T23:20:19.543Z,2.77
2022-08-20T23:22:47.924Z,3.13
2022-08-20T23:25:17.442Z,3.00
2022-08-20T23:27:48.415Z,3.03
2022-08-20T23:30:17.763Z,2.90
2022-08-20T23:32:46.319Z,2.80
2022-08-20T23:35:15.184Z,2.80
2022-08-20T23:37:44.936Z,3.03
2022-08-20T23:40:14.112Z,3.10
2022-08-20T23:42:42.548Z,3.27
2022-08-20T23:45:13.047Z,3.70
2022-08-20T23:47:42.156Z,3.43
2022-08-20T23:50:12.195Z,3.07
2022-08-20T23:52:40.582Z,2.90
2022-08-20T23:55:09.510Z,3.50
2022-08-20T23:57:39.099Z,3.57
